KSCR/SCR METAR and TAF weather

Enter ICAO airport designator
Station Type Date Time Source
KSCR METAR 2022/01/26 08:15 UTC NOAA

KSCR 260815Z AUTO 01006KT 10SM CLR 03/M02 A3013 RMK AO2 T00301025


Station Type Date Time Source
KSCR Decoded METAR 2022/01/26 08:15 UTC NOAA

Station name not available
Jan 26, 2022 - 03:15 AM EST / 2022.01.26 0815 UTC
Wind: from the N (010 degrees) at 7 MPH (6 KT):0
Visibility: 10 mile(s):0
Sky conditions: clear
Temperature: 37.4 F (3.0 C)
Dew Point: 27.5 F (-2.5 C)
Relative Humidity: 67%
Pressure (altimeter): 30.13 in. Hg (1020 hPa)
ob: KSCR 260815Z AUTO 01006KT 10SM CLR 03/M02 A3013 RMK AO2 T00301025
cycle: 8

Station Type Date Time Source
KSCR TAF UTC NOAA

Error!

Example: see airport list